Rocky Ford, CO (81067)

11:00 AM MDT on May 23, 2015 (GMT -0600)
KCOROCKY2 | | Change Station
CLOSE
Current Station
Personal Weather Station
Location: Rocky Ford, CO
Elevation: 4109 ft
Nearby Weather Stations
Active Advisory: Flood Warning

Elev 4109 ft 38.03 °N, 103.68 °W | Updated 26 seconds ago

Partly Cloudy
Partly Cloudy
68.4 °F
Feels Like 68.4 °F
N
1.6
Wind Variable Wind from SE
Gusts 7.6 mph

Today
High -- | Low -- °F
--% Chance of Precip.
Yesterday
High -- | Low -- °F
Precip. -- in
5:38 AM 8:05 PM
Waxing Crescent, 31% visible
Pressure 29.84 in
Visibility 10.0 miles
Clouds Few 2500 ft
Dew Point 57 °F
Humidity 67%
Rainfall 0.00 in
Snow Depth Not available.
UV 10 out of 12
Pollen 8.40 out of 12
Air Quality Not available.
Flu Activity Sporadic
METAR KLHX 231653Z AUTO 13014G20KT 10SM FEW025 17/11 A2996 RMK AO2 SLP103 T01720111

More Conditions Fewer Conditions

Pressure 29.84 in
Visibility 10.0 miles
Clouds Few 2500 ft
Dew Point 57 °F
Humidity 67%
Rainfall 0.00 in
Snow Depth Not available.
UV 10 out of 12
Pollen 8.40 out of 12
Air Quality Not available.
Flu Activity Sporadic
METAR KLHX 231653Z AUTO 13014G20KT 10SM FEW025 17/11 A2996 RMK AO2 SLP103 T01720111

More Conditions Fewer Conditions

10-Day Weather Forecast

Almanac

Astronomy

May. 23, 2015 Rise Set
Actual Time
Civil Twilight
Nautical Twilight
Astronomical Twilight
Moon
Length of Visible Light
Length of Day
Tomorrow will be .
, % of the Moon is Illuminated

Today's Extremes

State Highs State Lows

Community

WunderPhotos

Upload Photos

1,823,519 photos uploaded!

WunderBlogs® & News

Nearby

Air Quality

  Air Quality AQ Index Pollutant
Not available.

Snow Depth

Station Depth Elevation

Earthquake Activity

City Distance Mag. Time & Date
Minimum magnitude displayed is 2.5.

Coastal Water Temperatures

Place Temperature

Stations

Nearby Weather Stations

Station Location Temp. Windchill Dew Point Humidity Wind Precip. Elev Updated Type
                   
Flood Warning
Statement as of 7:50 AM MDT on May 23, 2015

The Flood Warning continues for
the Arkansas River at La Junta.
* Until Wednesday evening... or until the warning is cancelled.
* At 7:15 am Saturday the stage was 11.6 feet.
* Flood stage is 11.0 feet.
* Minor flooding is occurring and is forecast to continue.
* Forecast... the river will continue rising to near 12.4 feet by
early tomorrow afternoon. The river will fall below flood stage
midmorning Wednesday.
* Impact... at 12.0 feet... flood waters threaten Highway 194 east of La
Junta.


Lat... Lon 3804 10356 3808 10341 3812 10321 3805 10321
      3802 10337 3798 10361